Time;durP1;ratioP1;P1;durP2;ratioP2;P2;SDS_P1;SDS_P2;PMS_P1;PMS_P2;Temp;Humidity;BMP_temperature;BMP_pressure;BME280_temperature;BME280_humidity;BME280_pressure;Samples;Min_cycle;Max_cycle;Signal;HPM_P1;HPM_P2
2023/07/17 00:01:35;;;;;;;6.95;3.30;;;19.40;83.70;;;;;;5093610;28;20059;-77
2023/07/17 00:04:01;;;;;;;8.95;3.13;;;19.40;83.50;;;;;;5093469;28;20025;-77
2023/07/17 00:06:26;;;;;;;4.85;2.60;;;19.40;83.60;;;;;;5076718;28;20549;-77
2023/07/17 00:08:52;;;;;;;6.00;2.80;;;19.40;83.50;;;;;;5075824;28;20040;-77
2023/07/17 00:11:18;;;;;;;6.47;2.92;;;19.30;83.50;;;;;;5093342;28;20032;-77
2023/07/17 00:13:43;;;;;;;5.93;3.00;;;19.30;83.40;;;;;;5093371;28;20046;-77
2023/07/17 00:16:09;;;;;;;4.32;2.83;;;19.30;83.30;;;;;;5076594;28;20081;-77
2023/07/17 00:18:34;;;;;;;6.05;2.95;;;19.20;83.80;;;;;;5093214;28;20044;-77
2023/07/17 00:21:04;;;;;;;7.93;3.22;;;19.00;84.20;;;;;;5093099;28;20037;-77
2023/07/17 00:23:30;;;;;;;9.60;3.28;;;18.90;84.70;;;;;;5076485;28;20028;-76
2023/07/17 00:25:55;;;;;;;7.32;3.25;;;18.90;85.60;;;;;;5094028;28;20084;-77
2023/07/17 00:28:21;;;;;;;7.05;3.33;;;18.80;85.10;;;;;;5092929;28;20025;-76
2023/07/17 00:30:47;;;;;;;6.28;2.60;;;18.80;85.20;;;;;;5092898;28;20021;-77
2023/07/17 00:33:13;;;;;;;5.13;3.15;;;18.80;85.20;;;;;;5093862;28;20031;-77
2023/07/17 00:35:39;;;;;;;5.38;2.80;;;18.80;85.10;;;;;;5092824;28;20032;-77
2023/07/17 00:38:05;;;;;;;5.47;3.15;;;18.90;85.10;;;;;;5093819;28;20033;-76
2023/07/17 00:40:30;;;;;;;5.55;2.78;;;18.80;85.80;;;;;;5076047;28;20031;-77
2023/07/17 00:43:00;;;;;;;4.97;2.60;;;18.80;85.00;;;;;;5092745;28;20025;-77
2023/07/17 00:45:31;;;;;;;5.65;2.70;;;18.90;84.90;;;;;;5092711;28;20506;-77
2023/07/17 00:47:58;;;;;;;6.38;2.80;;;18.90;84.70;;;;;;5075921;28;20029;-77
2023/07/17 00:50:24;;;;;;;5.57;2.95;;;18.90;84.70;;;;;;5093267;28;20048;-77
2023/07/17 00:52:50;;;;;;;6.60;2.90;;;18.90;84.40;;;;;;5092668;28;20039;-77
2023/07/17 00:55:18;;;;;;;8.27;3.30;;;18.80;84.60;;;;;;5092265;28;20020;-77
2023/07/17 00:57:43;;;;;;;6.10;3.13;;;18.70;84.80;;;;;;5093520;28;20025;-77
2023/07/17 01:00:12;;;;;;;5.93;3.08;;;18.60;85.30;;;;;;5092604;28;20120;-78
2023/07/17 01:02:39;;;;;;;6.68;3.10;;;18.50;85.90;;;;;;5092593;28;20107;-77
2023/07/17 01:05:05;;;;;;;6.47;3.13;;;18.50;86.10;;;;;;5092290;28;20135;-77
2023/07/17 01:07:31;;;;;;;6.03;3.10;;;18.40;86.50;;;;;;5075712;28;20033;-77
2023/07/17 01:09:56;;;;;;;5.68;2.97;;;18.50;86.30;;;;;;5092397;28;20020;-76
2023/07/17 01:12:22;;;;;;;6.32;3.00;;;18.40;86.40;;;;;;5075659;28;20036;-77
2023/07/17 01:14:48;;;;;;;5.53;2.67;;;18.40;86.60;;;;;;5075668;28;20028;-77
2023/07/17 01:17:13;;;;;;;5.72;2.85;;;18.40;86.50;;;;;;5075546;28;20029;-77
2023/07/17 01:19:39;;;;;;;5.53;3.08;;;18.40;86.60;;;;;;5075526;28;20024;-77
2023/07/17 01:22:21;;;;;;;5.60;2.78;;;18.40;86.60;;;;;;5075571;28;20165;-77
2023/07/17 01:24:47;;;;;;;6.85;3.00;;;18.40;86.80;;;;;;5092363;28;20025;-77
2023/07/17 01:27:13;;;;;;;4.85;3.20;;;18.40;86.60;;;;;;5093137;28;20088;-77
2023/07/17 01:29:38;;;;;;;5.90;3.28;;;18.30;86.60;;;;;;5092182;28;20029;-77
2023/07/17 01:32:04;;;;;;;6.05;2.75;;;18.30;86.50;;;;;;5092209;28;20035;-77
2023/07/17 01:34:30;;;;;;;7.22;3.10;;;18.30;86.70;;;;;;5075410;28;20025;-76
2023/07/17 01:36:56;;;;;;;6.90;3.10;;;18.40;86.70;;;;;;5093116;28;20025;-77
2023/07/17 01:39:21;;;;;;;4.35;2.80;;;18.40;86.40;;;;;;5075413;28;20044;-77
2023/07/17 01:41:47;;;;;;;5.90;2.80;;;18.40;86.30;;;;;;5093069;28;20032;-77
2023/07/17 01:44:12;;;;;;;6.32;2.92;;;18.40;85.90;;;;;;5092023;28;20036;-77
2023/07/17 01:46:38;;;;;;;4.38;2.65;;;18.40;85.80;;;;;;5075299;28;20036;-77
2023/07/17 01:49:04;;;;;;;7.30;2.78;;;18.40;85.70;;;;;;5091869;28;20032;-77
2023/07/17 01:51:29;;;;;;;7.05;3.00;;;18.40;85.60;;;;;;5092093;28;20031;-77
2023/07/17 01:53:55;;;;;;;6.18;2.40;;;18.30;85.80;;;;;;5092033;28;20025;-77
2023/07/17 01:56:20;;;;;;;5.78;2.30;;;18.30;85.90;;;;;;5092015;28;20025;-77
2023/07/17 01:58:46;;;;;;;5.97;2.72;;;18.20;86.10;;;;;;5092918;28;20039;-77
2023/07/17 02:01:12;;;;;;;7.18;2.90;;;18.20;86.10;;;;;;5075165;28;20043;-76
2023/07/17 02:03:37;;;;;;;5.28;2.67;;;18.20;86.00;;;;;;5075088;28;20064;-77
2023/07/17 02:06:04;;;;;;;6.25;2.33;;;18.20;86.00;;;;;;5091936;28;20059;-77
2023/07/17 02:08:30;;;;;;;5.75;2.30;;;18.20;85.80;;;;;;5091810;28;20033;-77
2023/07/17 02:10:55;;;;;;;6.63;2.58;;;18.10;85.70;;;;;;5075105;28;20029;-77
2023/07/17 02:13:21;;;;;;;4.22;2.53;;;18.10;85.80;;;;;;5092750;28;20063;-77
2023/07/17 02:15:47;;;;;;;6.70;2.45;;;18.10;85.60;;;;;;5075099;28;20028;-77
2023/07/17 02:18:12;;;;;;;5.55;2.67;;;18.10;85.60;;;;;;5091793;28;20036;-77
2023/07/17 02:20:38;;;;;;;5.30;2.28;;;18.10;85.40;;;;;;5091764;28;20029;-77
2023/07/17 02:23:04;;;;;;;6.65;2.63;;;18.00;85.40;;;;;;5074958;28;20032;-77
2023/07/17 02:25:29;;;;;;;6.80;2.67;;;18.00;85.50;;;;;;5091673;28;20040;-77
2023/07/17 02:27:55;;;;;;;3.92;2.53;;;18.00;85.30;;;;;;5074852;28;20044;-77
2023/07/17 02:30:21;;;;;;;5.60;2.42;;;18.00;85.30;;;;;;5091638;28;20055;-77
2023/07/17 02:32:47;;;;;;;4.63;2.42;;;18.00;85.40;;;;;;5077593;28;20025;-77
2023/07/17 02:35:12;;;;;;;4.75;2.30;;;17.90;85.40;;;;;;5078459;28;20013;-77
2023/07/17 02:37:38;;;;;;;5.07;2.30;;;17.90;85.40;;;;;;5095298;28;20379;-77
2023/07/17 02:40:12;;;;;;;4.95;2.20;;;17.90;85.40;;;;;;5078472;28;20096;-77
2023/07/17 02:42:37;;;;;;;5.15;2.60;;;17.80;85.50;;;;;;5095052;28;20028;-76
2023/07/17 02:45:06;;;;;;;5.13;2.38;;;17.90;85.50;;;;;;5095067;28;20040;-77
2023/07/17 02:47:31;;;;;;;4.30;2.42;;;17.80;85.60;;;;;;5094853;28;20032;-77
2023/07/17 02:49:57;;;;;;;4.18;2.25;;;17.80;85.80;;;;;;5095668;28;20045;-77
2023/07/17 02:52:23;;;;;;;8.98;2.60;;;17.70;85.90;;;;;;5078124;28;20024;-77
2023/07/17 02:54:48;;;;;;;8.48;2.58;;;17.60;86.40;;;;;;5094853;28;20047;-77
2023/07/17 02:57:15;;;;;;;3.58;2.05;;;17.60;86.40;;;;;;5078086;28;20021;-77
2023/07/17 02:59:41;;;;;;;8.30;2.60;;;17.70;86.20;;;;;;5095912;28;20051;-77
2023/07/17 03:02:06;;;;;;;6.95;2.83;;;17.70;86.20;;;;;;5095714;28;20028;-77
2023/07/17 03:04:32;;;;;;;5.60;2.50;;;17.70;86.10;;;;;;5077855;28;20035;-77
2023/07/17 03:06:58;;;;;;;3.83;2.10;;;17.60;86.30;;;;;;5094701;28;20049;-77
2023/07/17 03:09:23;;;;;;;6.22;2.25;;;17.60;86.40;;;;;;5077762;28;20024;-77
2023/07/17 03:11:49;;;;;;;6.55;2.40;;;17.60;86.40;;;;;;5094635;28;20032;-77
2023/07/17 03:14:15;;;;;;;6.78;2.58;;;17.60;86.40;;;;;;5094563;28;20098;-77
2023/07/17 03:16:41;;;;;;;6.60;2.45;;;17.60;86.40;;;;;;5077750;28;20092;-77
2023/07/17 03:19:06;;;;;;;6.57;2.70;;;17.60;86.40;;;;;;5077680;28;20029;-77
2023/07/17 03:21:32;;;;;;;4.60;2.28;;;17.50;86.70;;;;;;5094260;28;20044;-77
2023/07/17 03:23:58;;;;;;;5.43;2.33;;;17.50;86.70;;;;;;5095267;28;20153;-77
2023/07/17 03:26:23;;;;;;;5.63;2.50;;;17.50;86.60;;;;;;5077643;28;20069;-76
2023/07/17 03:28:49;;;;;;;5.80;2.15;;;17.50;86.50;;;;;;5094234;28;20032;-76
2023/07/17 03:31:15;;;;;;;4.07;2.15;;;17.40;87.50;;;;;;5094254;28;20032;-77
2023/07/17 03:33:41;;;;;;;7.68;2.30;;;17.40;86.90;;;;;;5093980;28;20028;-77
2023/07/17 03:36:07;;;;;;;6.43;2.50;;;17.40;87.70;;;;;;5094237;28;20040;-77
2023/07/17 03:38:32;;;;;;;7.82;2.50;;;17.40;86.70;;;;;;5094218;28;20058;-77
2023/07/17 03:40:58;;;;;;;5.18;2.03;;;17.40;86.70;;;;;;5094164;28;20028;-77
2023/07/17 03:43:23;;;;;;;5.05;2.40;;;17.40;86.60;;;;;;5076131;28;20033;-76
2023/07/17 03:45:51;;;;;;;5.03;2.15;;;17.40;86.60;;;;;;5077115;28;20032;-77
2023/07/17 03:48:17;;;;;;;5.70;2.63;;;17.40;86.50;;;;;;5093734;28;20036;-77
2023/07/17 03:50:42;;;;;;;6.55;2.38;;;17.40;86.60;;;;;;5076872;28;20037;-76
2023/07/17 03:53:08;;;;;;;4.18;2.30;;;17.30;86.60;;;;;;5077008;28;20039;-77
2023/07/17 03:55:33;;;;;;;7.05;2.28;;;17.30;86.80;;;;;;5076929;28;20021;-77
2023/07/17 03:57:59;;;;;;;4.07;2.50;;;17.30;86.80;;;;;;5076873;28;20036;-77
2023/07/17 04:00:25;;;;;;;3.97;2.15;;;17.30;86.90;;;;;;5093484;28;20025;-77
2023/07/17 04:02:50;;;;;;;5.07;2.20;;;17.30;86.80;;;;;;5094452;28;20086;-77
2023/07/17 04:05:16;;;;;;;7.45;2.17;;;17.20;86.90;;;;;;5076730;28;20062;-77
2023/07/17 04:07:41;;;;;;;8.40;2.78;;;17.30;86.90;;;;;;5093281;28;20139;-77
2023/07/17 04:10:08;;;;;;;4.55;2.30;;;17.30;86.80;;;;;;5076627;28;20111;-77
2023/07/17 04:12:33;;;;;;;5.00;2.10;;;17.20;87.20;;;;;;5094324;28;20024;-77
2023/07/17 04:14:59;;;;;;;6.18;2.33;;;17.10;87.30;;;;;;5076545;28;20021;-77
2023/07/17 04:17:25;;;;;;;7.63;2.58;;;17.10;87.50;;;;;;5094173;28;20028;-77
2023/07/17 04:19:50;;;;;;;4.70;2.33;;;17.10;87.80;;;;;;5093259;28;20047;-77
2023/07/17 04:22:16;;;;;;;5.05;2.38;;;17.10;87.80;;;;;;5093055;28;20472;-77
2023/07/17 04:24:41;;;;;;;6.55;2.70;;;17.10;87.90;;;;;;5093104;28;20024;-77
2023/07/17 04:27:07;;;;;;;6.90;2.40;;;17.10;87.80;;;;;;5093072;28;20028;-77
2023/07/17 04:29:33;;;;;;;5.03;2.13;;;17.10;88.00;;;;;;5076190;28;20056;-77
2023/07/17 04:31:58;;;;;;;8.38;2.38;;;17.00;88.00;;;;;;5092877;28;20100;-77
2023/07/17 04:34:24;;;;;;;5.97;2.20;;;17.10;88.00;;;;;;5076111;28;20029;-76
2023/07/17 04:36:50;;;;;;;5.75;2.50;;;17.10;88.00;;;;;;5092956;28;20108;-77
2023/07/17 04:39:15;;;;;;;8.13;2.30;;;17.10;88.90;;;;;;5092969;28;20070;-77
2023/07/17 04:41:41;;;;;;;5.22;2.20;;;17.00;88.30;;;;;;5093729;28;20032;-76
2023/07/17 04:44:07;;;;;;;4.22;2.17;;;17.00;88.50;;;;;;5076120;28;20033;-77
2023/07/17 04:46:33;;;;;;;5.93;2.33;;;17.00;88.20;;;;;;5092861;28;20032;-77
2023/07/17 04:48:59;;;;;;;6.38;2.40;;;17.00;88.30;;;;;;5092692;28;20057;-76
2023/07/17 04:51:25;;;;;;;8.93;2.53;;;17.00;88.50;;;;;;5092500;28;20048;-76
2023/07/17 04:53:52;;;;;;;5.68;2.30;;;17.00;88.30;;;;;;5092494;28;20027;-76
2023/07/17 04:56:17;;;;;;;5.25;2.22;;;17.00;88.30;;;;;;5093519;28;20013;-77
2023/07/17 04:58:43;;;;;;;5.22;2.30;;;17.00;88.20;;;;;;5092619;28;20090;-77
2023/07/17 05:01:08;;;;;;;5.05;2.53;;;17.10;88.30;;;;;;5092540;28;20029;-77
2023/07/17 05:03:36;;;;;;;6.70;2.40;;;17.10;88.30;;;;;;5093478;28;20094;-76
2023/07/17 05:06:02;;;;;;;7.38;2.60;;;17.00;88.20;;;;;;5092363;28;20510;-78
2023/07/17 05:08:28;;;;;;;8.52;2.63;;;17.00;88.40;;;;;;5093479;28;20036;-77
2023/07/17 05:11:00;;;;;;;5.97;2.38;;;17.00;88.30;;;;;;5075697;28;20092;-77
2023/07/17 05:13:26;;;;;;;5.85;2.97;;;17.10;88.20;;;;;;5093422;28;20070;-77
2023/07/17 05:15:52;;;;;;;6.65;3.08;;;17.00;88.30;;;;;;5093317;28;20021;-77
2023/07/17 05:18:18;;;;;;;7.28;2.83;;;16.90;87.60;;;;;;5093308;28;20031;-77
2023/07/17 05:20:45;;;;;;;7.18;2.47;;;17.00;88.40;;;;;;5092348;28;20088;-77
2023/07/17 05:23:11;;;;;;;6.50;2.92;;;17.00;88.30;;;;;;5092284;28;20032;-78
2023/07/17 05:25:37;;;;;;;10.55;3.47;;;17.10;88.30;;;;;;5092362;28;20093;-77
2023/07/17 05:28:04;;;;;;;8.18;3.00;;;17.10;88.00;;;;;;5093086;28;20099;-77
2023/07/17 05:30:32;;;;;;;8.63;3.33;;;17.10;87.40;;;;;;5092328;28;20025;-77
2023/07/17 05:32:58;;;;;;;9.55;3.45;;;17.10;87.20;;;;;;5092201;28;20088;-77
2023/07/17 05:35:24;;;;;;;7.93;3.25;;;17.20;87.40;;;;;;5092113;28;20021;-77
2023/07/17 05:37:49;;;;;;;9.90;3.42;;;17.20;87.20;;;;;;5092185;28;20073;-76
2023/07/17 05:40:15;;;;;;;10.18;3.45;;;17.10;87.10;;;;;;5075323;28;20048;-77
2023/07/17 05:42:40;;;;;;;8.18;3.75;;;17.20;87.30;;;;;;5075429;28;20020;-78
2023/07/17 05:45:07;;;;;;;10.20;3.35;;;17.20;87.60;;;;;;5075323;28;20032;-78
2023/07/17 05:47:32;;;;;;;7.70;3.40;;;17.30;87.50;;;;;;5075258;28;20033;-78
2023/07/17 05:49:58;;;;;;;10.88;3.60;;;17.30;87.20;;;;;;5075056;28;20131;-78
2023/07/17 05:52:24;;;;;;;10.45;3.60;;;17.40;87.20;;;;;;5075300;28;20021;-78
2023/07/17 05:54:49;;;;;;;9.25;3.75;;;17.30;86.50;;;;;;5092131;28;20024;-77
2023/07/17 05:57:15;;;;;;;10.13;3.38;;;17.30;87.40;;;;;;5075317;28;20021;-78
2023/07/17 05:59:40;;;;;;;12.85;4.13;;;17.40;87.00;;;;;;5092865;28;20495;-77
2023/07/17 06:02:06;;;;;;;9.80;3.42;;;17.40;86.50;;;;;;5075139;28;20036;-77
2023/07/17 06:04:32;;;;;;;7.68;3.13;;;17.40;86.50;;;;;;5091994;28;20025;-76
2023/07/17 06:06:57;;;;;;;11.57;4.28;;;17.40;86.80;;;;;;5093566;28;20032;-77
2023/07/17 06:09:23;;;;;;;10.25;4.13;;;17.40;86.00;;;;;;5095540;28;20035;-77
2023/07/17 06:11:48;;;;;;;8.90;3.95;;;17.40;85.90;;;;;;5095704;28;20074;-77
2023/07/17 06:14:14;;;;;;;11.98;4.28;;;17.40;86.30;;;;;;5095676;28;20047;-78
2023/07/17 06:16:40;;;;;;;8.80;3.67;;;17.40;86.30;;;;;;5095515;28;20040;-77
2023/07/17 06:19:05;;;;;;;9.18;3.90;;;17.50;86.20;;;;;;5078746;28;20036;-77
2023/07/17 06:21:31;;;;;;;8.70;3.47;;;17.60;86.30;;;;;;5078714;28;20090;-77
2023/07/17 06:23:57;;;;;;;12.48;3.85;;;17.60;86.30;;;;;;5096391;28;20055;-77
2023/07/17 06:26:22;;;;;;;9.35;3.50;;;17.60;85.20;;;;;;5095302;28;20039;-77
2023/07/17 06:28:49;;;;;;;7.53;3.42;;;17.60;85.90;;;;;;5095271;28;20127;-78
2023/07/17 06:31:15;;;;;;;11.25;4.05;;;17.70;86.50;;;;;;5095344;28;20023;-78
2023/07/17 06:33:40;;;;;;;13.55;4.20;;;17.70;85.80;;;;;;5095189;28;20032;-78
2023/07/17 06:36:06;;;;;;;10.27;4.13;;;17.70;85.20;;;;;;5078609;28;20028;-77
2023/07/17 06:38:32;;;;;;;7.82;4.03;;;17.70;85.20;;;;;;5095129;28;20052;-77
2023/07/17 06:40:57;;;;;;;10.95;3.78;;;17.70;85.20;;;;;;5095079;28;20113;-77
2023/07/17 06:43:23;;;;;;;10.50;4.13;;;17.80;85.00;;;;;;5078402;28;20035;-77
2023/07/17 06:45:48;;;;;;;8.88;4.03;;;17.80;84.90;;;;;;5095013;28;20115;-77
2023/07/17 06:48:15;;;;;;;7.50;3.75;;;17.80;84.70;;;;;;5078346;28;20048;-77
2023/07/17 06:50:41;;;;;;;8.68;4.45;;;17.90;84.90;;;;;;5094684;28;20071;-76
2023/07/17 06:53:06;;;;;;;14.07;4.13;;;17.90;85.00;;;;;;5094981;28;20119;-77
2023/07/17 06:55:32;;;;;;;9.60;3.78;;;18.00;84.20;;;;;;5078144;28;20027;-77
2023/07/17 06:57:58;;;;;;;10.15;3.53;;;18.00;85.20;;;;;;5094853;28;20040;-77
2023/07/17 07:00:23;;;;;;;10.02;4.20;;;18.00;84.30;;;;;;5094746;28;20044;-77
2023/07/17 07:02:49;;;;;;;9.98;4.25;;;18.10;84.10;;;;;;5077901;28;20033;-77
2023/07/17 07:05:15;;;;;;;9.57;3.90;;;18.10;84.10;;;;;;5094717;28;20025;-78
2023/07/17 07:07:40;;;;;;;11.65;4.03;;;18.20;83.50;;;;;;5077767;28;20467;-76
2023/07/17 07:10:08;;;;;;;10.13;3.60;;;18.30;83.40;;;;;;5077929;28;20050;-77
2023/07/17 07:12:33;;;;;;;8.63;3.80;;;18.30;82.90;;;;;;5077912;28;20029;-77
2023/07/17 07:14:59;;;;;;;9.07;4.00;;;18.30;82.20;;;;;;5094737;28;20059;-77
2023/07/17 07:17:24;;;;;;;12.68;4.38;;;18.40;83.50;;;;;;5094253;28;20047;-77
2023/07/17 07:19:51;;;;;;;10.38;3.78;;;18.50;83.50;;;;;;5077711;28;20036;-77
2023/07/17 07:22:16;;;;;;;11.75;4.22;;;18.50;82.80;;;;;;5094438;28;20024;-77
2023/07/17 07:24:45;;;;;;;15.50;4.22;;;18.50;82.10;;;;;;5094561;28;20088;-77
2023/07/17 07:27:10;;;;;;;10.55;3.85;;;18.60;82.20;;;;;;5094137;28;20021;-77
2023/07/17 07:29:36;;;;;;;10.48;3.90;;;18.60;82.70;;;;;;5094032;28;20036;-77
2023/07/17 07:32:02;;;;;;;8.25;3.90;;;18.50;81.80;;;;;;5094185;28;20035;-78
2023/07/17 07:34:28;;;;;;;9.20;3.65;;;18.50;81.90;;;;;;5077314;28;20027;-77
2023/07/17 07:36:53;;;;;;;11.65;3.92;;;18.60;82.70;;;;;;5094097;28;20063;-77
2023/07/17 07:39:19;;;;;;;8.73;3.72;;;18.70;83.30;;;;;;5094039;28;20032;-78
2023/07/17 07:41:45;;;;;;;11.40;3.97;;;18.80;82.90;;;;;;5094189;28;20029;-78
2023/07/17 07:44:11;;;;;;;11.50;3.92;;;18.90;81.70;;;;;;5093947;28;20035;-77
2023/07/17 07:46:36;;;;;;;12.20;4.03;;;18.90;80.30;;;;;;5093832;28;20033;-76
2023/07/17 07:49:03;;;;;;;13.60;4.07;;;18.90;80.80;;;;;;5076797;28;20120;-77
2023/07/17 07:51:29;;;;;;;7.50;3.40;;;18.90;79.60;;;;;;5094774;28;20053;-77
2023/07/17 07:53:54;;;;;;;11.48;3.75;;;18.90;79.90;;;;;;5094705;28;20024;-78
2023/07/17 07:56:20;;;;;;;10.93;4.13;;;18.80;80.60;;;;;;5093709;28;20028;-77
2023/07/17 07:58:45;;;;;;;9.23;3.75;;;18.90;80.60;;;;;;5093750;28;20029;-77
2023/07/17 08:01:11;;;;;;;7.93;3.85;;;18.90;81.20;;;;;;5093534;28;20025;-78
2023/07/17 08:03:39;;;;;;;9.85;4.15;;;19.00;81.00;;;;;;5093526;28;20095;-77
2023/07/17 08:06:04;;;;;;;10.18;4.55;;;19.10;81.50;;;;;;5093580;28;20077;-77
2023/07/17 08:08:30;;;;;;;10.40;4.32;;;19.30;80.70;;;;;;5093414;28;20084;-77
2023/07/17 08:10:56;;;;;;;10.38;3.75;;;19.40;80.50;;;;;;5093455;28;20471;-77
2023/07/17 08:13:21;;;;;;;8.48;3.80;;;19.40;78.60;;;;;;5076678;28;20020;-76
2023/07/17 08:15:48;;;;;;;10.18;4.15;;;19.30;78.80;;;;;;5093268;28;20483;-75
2023/07/17 08:18:13;;;;;;;8.57;4.00;;;19.30;78.10;;;;;;5093313;28;20120;-75
2023/07/17 08:20:39;;;;;;;9.32;4.18;;;19.30;78.30;;;;;;5093118;28;20036;-74
2023/07/17 08:23:06;;;;;;;8.70;3.72;;;19.20;78.10;;;;;;5093939;28;20052;-74
2023/07/17 08:25:31;;;;;;;6.10;3.60;;;19.30;77.70;;;;;;5092953;28;20059;-74
2023/07/17 08:27:57;;;;;;;10.43;3.80;;;19.40;77.80;;;;;;5092974;28;20032;-73
2023/07/17 08:30:22;;;;;;;8.13;3.30;;;19.40;77.40;;;;;;5092346;28;20031;-76
2023/07/17 08:32:48;;;;;;;8.35;3.55;;;19.50;76.20;;;;;;5092823;28;20060;-75
2023/07/17 08:35:14;;;;;;;9.02;4.00;;;19.50;76.20;;;;;;5093811;28;20028;-76
2023/07/17 08:37:39;;;;;;;9.63;3.92;;;19.50;76.00;;;;;;5076110;28;20032;-75
2023/07/17 08:40:06;;;;;;;6.20;3.95;;;19.50;75.70;;;;;;5092801;28;20058;-75
2023/07/17 08:42:33;;;;;;;5.88;3.40;;;19.50;75.20;;;;;;5076160;28;20028;-75
2023/07/17 08:45:00;;;;;;;8.27;3.15;;;19.60;76.30;;;;;;5092745;28;20042;-75
2023/07/17 08:47:26;;;;;;;7.10;3.55;;;19.60;74.80;;;;;;5075979;28;20029;-76
2023/07/17 08:49:52;;;;;;;8.48;3.45;;;19.50;74.00;;;;;;5093368;28;20044;-76
2023/07/17 08:52:18;;;;;;;9.93;3.83;;;19.50;75.30;;;;;;5092501;28;20032;-76
2023/07/17 08:54:44;;;;;;;9.55;3.90;;;19.50;75.40;;;;;;5093569;28;20074;-77
2023/07/17 08:57:11;;;;;;;7.60;3.42;;;19.60;76.30;;;;;;5075758;28;20025;-78
2023/07/17 08:59:37;;;;;;;8.80;3.72;;;19.70;75.30;;;;;;5092547;28;20021;-77
2023/07/17 09:02:04;;;;;;;5.90;3.35;;;19.70;76.40;;;;;;5092585;28;20116;-76
2023/07/17 09:04:34;;;;;;;8.60;3.75;;;19.80;74.20;;;;;;5093423;28;20020;-75
2023/07/17 09:06:59;;;;;;;8.30;4.00;;;19.80;74.80;;;;;;5093530;28;20032;-72
2023/07/17 09:09:25;;;;;;;6.75;3.58;;;19.90;74.80;;;;;;5093305;28;20055;-78
2023/07/17 09:12:11;;;;;;;8.18;3.67;;;19.90;73.50;;;;;;5093458;28;20017;-76
2023/07/17 09:14:38;;;;;;;7.05;3.95;;;19.90;73.20;;;;;;5092313;28;20029;-75
2023/07/17 09:17:07;;;;;;;7.15;3.65;;;19.90;74.40;;;;;;5092357;28;20510;-74
2023/07/17 09:19:34;;;;;;;6.50;3.53;;;20.10;75.00;;;;;;5092289;28;20044;-76
2023/07/17 09:22:05;;;;;;;4.97;3.15;;;20.20;74.70;;;;;;5092341;28;20025;-76
2023/07/17 09:24:36;;;;;;;8.60;3.42;;;20.30;73.60;;;;;;5093241;28;20052;-76
2023/07/17 09:27:05;;;;;;;7.10;3.45;;;20.40;74.00;;;;;;5092315;28;20373;-76
2023/07/17 09:29:30;;;;;;;9.57;3.70;;;20.50;73.90;;;;;;5092023;28;20028;-77
2023/07/17 09:31:57;;;;;;;7.72;3.50;;;20.60;73.30;;;;;;5092215;28;20025;-78
2023/07/17 09:34:23;;;;;;;6.75;3.70;;;20.60;73.20;;;;;;5092066;28;20057;-77
2023/07/17 09:36:50;;;;;;;9.10;4.20;;;20.50;71.30;;;;;;5093104;28;20016;-77
2023/07/17 09:39:16;;;;;;;6.82;3.10;;;20.40;72.00;;;;;;5075619;28;20029;-76
2023/07/17 09:41:42;;;;;;;8.00;3.40;;;20.50;72.30;;;;;;5096064;28;20088;-78
2023/07/17 09:44:08;;;;;;;6.70;3.22;;;20.50;70.90;;;;;;5096243;28;20021;-81
2023/07/17 09:46:38;;;;;;;5.28;2.88;;;20.50;69.60;;;;;;5096173;28;20505;-77
2023/07/17 09:49:06;;;;;;;7.63;3.20;;;20.40;72.60;;;;;;5096013;28;20087;-81
2023/07/17 09:51:32;;;;;;;8.30;3.10;;;20.40;71.50;;;;;;5079571;28;20083;-79
2023/07/17 09:53:58;;;;;;;5.63;2.97;;;20.50;73.00;;;;;;5096022;28;20020;-80
2023/07/17 09:56:28;;;;;;;6.60;3.13;;;20.60;71.10;;;;;;5095972;28;20128;-77
2023/07/17 09:59:04;;;;;;;16.63;3.60;;;20.70;70.40;;;;;;5096003;28;20111;-75
2023/07/17 10:01:32;;;;;;;7.85;2.90;;;20.80;69.10;;;;;;5097021;28;20020;-76
2023/07/17 10:04:04;;;;;;;8.30;3.33;;;20.90;71.10;;;;;;5096772;28;20033;-75
2023/07/17 10:06:31;;;;;;;7.22;3.17;;;21.20;72.50;;;;;;5095847;28;20021;-76
2023/07/17 10:08:59;;;;;;;5.47;2.67;;;21.30;68.60;;;;;;5095676;28;20028;-77
2023/07/17 10:11:25;;;;;;;6.50;2.60;;;21.40;70.60;;;;;;5096461;28;20024;-76
2023/07/17 10:13:51;;;;;;;7.72;2.55;;;21.40;69.80;;;;;;5078965;28;20403;-76
2023/07/17 10:16:18;;;;;;;9.10;2.70;;;21.40;67.90;;;;;;5095677;28;20033;-77
2023/07/17 10:18:48;;;;;;;6.65;2.80;;;21.30;70.30;;;;;;5096543;28;20059;-76
2023/07/17 10:21:18;;;;;;;5.60;2.50;;;21.50;71.30;;;;;;5095547;28;20027;-76
2023/07/17 10:23:45;;;;;;;5.93;2.45;;;21.50;69.00;;;;;;5095641;28;20020;-76
2023/07/17 10:26:13;;;;;;;5.38;2.25;;;21.60;68.20;;;;;;5095521;28;20033;-76
2023/07/17 10:28:40;;;;;;;6.60;2.50;;;21.70;69.50;;;;;;5095266;28;20028;-76
2023/07/17 10:31:25;;;;;;;5.68;2.25;;;21.70;69.20;;;;;;5095268;28;20021;-76
2023/07/17 10:34:02;;;;;;;4.25;2.22;;;21.70;68.50;;;;;;5080828;28;20025;-76
2023/07/17 10:36:39;;;;;;;5.43;2.40;;;21.70;66.60;;;;;;5096279;28;20091;-76
2023/07/17 10:39:05;;;;;;;7.72;2.40;;;21.60;64.70;;;;;;5095107;28;20036;-76
2023/07/17 10:41:31;;;;;;;4.45;2.20;;;21.50;64.80;;;;;;5095104;28;20051;-76
2023/07/17 10:43:58;;;;;;;7.72;1.98;;;21.30;64.90;;;;;;5095114;28;20086;-76
2023/07/17 10:46:34;;;;;;;3.17;1.92;;;21.30;65.20;;;;;;5096128;28;20093;-77
2023/07/17 10:49:08;;;;;;;5.32;2.13;;;21.50;65.50;;;;;;5096070;28;20028;-76
2023/07/17 10:51:35;;;;;;;5.95;2.38;;;21.60;64.60;;;;;;5095692;28;20043;-76
2023/07/17 10:54:01;;;;;;;6.10;2.10;;;21.60;64.00;;;;;;5094439;28;20017;-76
2023/07/17 10:56:29;;;;;;;6.32;2.30;;;21.70;63.90;;;;;;5095843;28;20017;-76
2023/07/17 10:58:54;;;;;;;3.97;1.75;;;21.90;66.00;;;;;;5094970;28;20039;-77
2023/07/17 11:01:21;;;;;;;5.32;1.73;;;21.90;64.40;;;;;;5077956;28;20024;-77
2023/07/17 11:03:47;;;;;;;4.50;1.98;;;22.10;64.80;;;;;;5094856;28;20038;-76
2023/07/17 11:06:15;;;;;;;4.30;1.80;;;22.20;62.90;;;;;;5094646;28;20095;-77
2023/07/17 11:08:42;;;;;;;6.78;2.20;;;22.10;62.10;;;;;;5094567;28;20021;-77
2023/07/17 11:11:08;;;;;;;5.63;1.98;;;22.00;63.70;;;;;;5094471;28;20025;-76
2023/07/17 11:13:34;;;;;;;5.43;2.30;;;22.20;62.90;;;;;;5094538;28;20051;-76
2023/07/17 11:16:08;;;;;;;7.18;1.95;;;22.20;61.80;;;;;;5094543;28;20025;-75
2023/07/17 11:18:52;;;;;;;5.55;2.13;;;22.30;62.20;;;;;;5094369;28;20021;-76
2023/07/17 11:21:20;;;;;;;5.63;2.70;;;22.20;62.40;;;;;;5094467;28;20028;-76
2023/07/17 11:23:53;;;;;;;5.78;2.00;;;22.20;62.70;;;;;;5094354;28;20028;-76
2023/07/17 11:26:22;;;;;;;9.45;2.10;;;22.30;63.40;;;;;;5095265;28;20058;-76
2023/07/17 11:28:52;;;;;;;6.57;2.33;;;22.40;59.60;;;;;;5095117;28;20034;-77
2023/07/17 11:31:20;;;;;;;7.03;2.60;;;22.40;62.00;;;;;;5077484;28;20028;-76
2023/07/17 11:34:04;;;;;;;4.50;2.40;;;22.60;62.90;;;;;;5094020;28;20026;-76
2023/07/17 11:36:44;;;;;;;5.28;2.10;;;22.60;59.40;;;;;;5095089;28;20025;-76
2023/07/17 11:39:11;;;;;;;4.78;1.90;;;22.70;60.80;;;;;;5077353;28;20020;-76
2023/07/17 11:41:47;;;;;;;6.82;2.00;;;22.60;57.40;;;;;;5094970;28;20043;-76
2023/07/17 11:44:25;;;;;;;7.13;2.40;;;22.70;58.40;;;;;;5077255;28;20033;-76
2023/07/17 11:47:05;;;;;;;5.78;2.28;;;22.70;60.00;;;;;;5094894;28;20017;-76
2023/07/17 11:49:32;;;;;;;5.65;3.00;;;22.70;59.30;;;;;;5094611;28;20028;-78
2023/07/17 11:51:58;;;;;;;6.38;2.67;;;22.80;60.00;;;;;;5093628;28;20063;-79
2023/07/17 11:54:44;;;;;;;4.88;2.38;;;22.80;58.70;;;;;;5094718;28;20028;-78
2023/07/17 11:57:10;;;;;;;5.70;2.05;;;22.80;58.10;;;;;;5093573;28;20027;-76
2023/07/17 11:59:37;;;;;;;5.82;2.38;;;22.70;59.80;;;;;;5094564;28;20088;-77
2023/07/17 12:02:03;;;;;;;5.55;2.38;;;22.60;60.20;;;;;;5094380;28;20029;-75
2023/07/17 12:04:35;;;;;;;5.05;2.45;;;22.50;60.00;;;;;;5092485;28;20048;-80
2023/07/17 12:07:02;;;;;;;5.95;2.47;;;22.50;60.30;;;;;;5093512;28;20100;-80
2023/07/17 12:09:27;;;;;;;5.97;2.30;;;22.50;59.30;;;;;;5076799;28;20476;-76
2023/07/17 12:11:54;;;;;;;6.20;3.03;;;22.60;59.10;;;;;;5093376;28;20040;-78
2023/07/17 12:14:19;;;;;;;10.18;2.65;;;22.50;59.30;;;;;;5076641;28;20040;-75
2023/07/17 12:16:46;;;;;;;4.03;2.28;;;22.50;61.40;;;;;;5093296;28;20029;-79
2023/07/17 12:19:12;;;;;;;6.50;2.40;;;22.50;62.00;;;;;;5093317;28;20395;-73
2023/07/17 12:21:38;;;;;;;4.82;2.42;;;22.30;59.80;;;;;;5093253;28;20033;-77
2023/07/17 12:24:04;;;;;;;7.75;2.53;;;22.20;59.70;;;;;;5093070;28;20036;-75
2023/07/17 12:26:30;;;;;;;5.43;2.30;;;22.20;59.50;;;;;;5093026;28;20092;-75
2023/07/17 12:28:55;;;;;;;4.28;2.20;;;22.10;59.00;;;;;;5093026;28;20029;-77
2023/07/17 12:31:21;;;;;;;6.32;2.45;;;22.00;58.70;;;;;;5076307;28;20047;-77
2023/07/17 12:33:47;;;;;;;7.05;2.20;;;22.00;60.70;;;;;;5092812;28;20035;-75
2023/07/17 12:36:13;;;;;;;5.10;2.47;;;22.10;60.90;;;;;;5076355;28;20563;-76
2023/07/17 12:38:38;;;;;;;5.75;2.60;;;22.10;62.20;;;;;;5092867;28;20033;-75
2023/07/17 12:41:04;;;;;;;8.13;3.13;;;22.10;62.60;;;;;;5092849;28;20037;-76
2023/07/17 12:43:30;;;;;;;5.85;3.13;;;22.10;64.00;;;;;;5093722;28;20028;-76